Time;durP1;ratioP1;P1;durP2;ratioP2;P2;SDS_P1;SDS_P2;PMS_P1;PMS_P2;Temp;Humidity;BMP_temperature;BMP_pressure;BME280_temperature;BME280_humidity;BME280_pressure;Samples;Min_cycle;Max_cycle;Signal;HPM_P1;HPM_P2
2021/07/20 00:02:10;;;;;;;7.82;4.55;;;;;;;19.63;37.30;101632.56;3571951;40;20048;-69
2021/07/20 00:04:38;;;;;;;7.15;4.60;;;;;;;19.57;37.51;101628.59;3570717;40;20518;-68
2021/07/20 00:07:06;;;;;;;8.13;5.07;;;;;;;19.54;37.54;101629.78;3566762;40;20052;-69
2021/07/20 00:09:36;;;;;;;9.40;5.25;;;;;;;19.55;37.40;101636.22;3575980;40;20052;-69
2021/07/20 00:12:05;;;;;;;8.68;5.10;;;;;;;19.49;37.26;101631.34;3574045;40;20497;-68
2021/07/20 00:14:34;;;;;;;8.40;4.80;;;;;;;19.47;37.56;101631.50;3569805;40;20052;-68
2021/07/20 00:17:03;;;;;;;7.95;5.00;;;;;;;19.44;37.63;101623.50;3569887;40;20108;-69
2021/07/20 00:19:31;;;;;;;8.52;4.90;;;;;;;19.43;37.78;101629.25;3573596;40;20406;-68
2021/07/20 00:21:59;;;;;;;7.95;4.97;;;;;;;19.41;37.74;101629.41;3572856;40;20042;-68
2021/07/20 00:24:27;;;;;;;8.40;4.97;;;;;;;19.40;37.81;101624.03;3561238;40;20055;-69
2021/07/20 00:26:56;;;;;;;7.63;4.43;;;;;;;19.40;37.90;101624.91;3574455;40;20308;-68
2021/07/20 00:29:24;;;;;;;8.10;4.85;;;;;;;19.36;37.65;101617.06;3569384;40;20063;-68
2021/07/20 00:31:52;;;;;;;7.13;4.50;;;;;;;19.35;37.89;101621.75;3570654;40;20412;-68
2021/07/20 00:34:20;;;;;;;7.70;4.88;;;;;;;19.35;37.48;101618.16;3561995;40;20052;-68
2021/07/20 00:36:48;;;;;;;8.40;4.53;;;;;;;19.33;37.74;101620.22;3562887;40;20038;-69
2021/07/20 00:39:15;;;;;;;6.80;4.40;;;;;;;19.32;37.74;101619.34;3573110;40;20060;-68
2021/07/20 00:41:43;;;;;;;7.43;5.03;;;;;;;19.29;37.98;101616.91;3562099;40;20450;-69
2021/07/20 00:44:14;;;;;;;8.00;4.55;;;;;;;19.30;37.55;101617.78;3566332;40;20041;-68
2021/07/20 00:46:42;;;;;;;8.20;4.90;;;;;;;19.27;38.05;101626.44;3571796;40;20324;-68
2021/07/20 00:49:11;;;;;;;11.00;5.15;;;;;;;19.26;37.74;101624.72;3568431;40;20059;-68
2021/07/20 00:51:40;;;;;;;7.93;4.80;;;;;;;19.23;37.73;101625.91;3573470;40;20119;-68
2021/07/20 00:54:08;;;;;;;8.20;5.30;;;;;;;19.22;37.99;101623.31;3565666;40;20060;-69
2021/07/20 00:59:13;;;;;;;9.30;5.72;;;;;;;19.17;38.25;101627.47;3580268;40;20066;-79
2021/07/20 01:01:46;;;;;;;7.72;4.68;;;;;;;19.14;37.92;101618.63;3581238;40;20087;-80
2021/07/20 01:04:17;;;;;;;9.95;5.68;;;;;;;19.12;38.04;101613.22;3581340;40;20032;-81
2021/07/20 01:06:49;;;;;;;7.90;5.20;;;;;;;19.08;37.90;101616.53;3576454;40;20030;-79
2021/07/20 01:09:18;;;;;;;8.30;4.95;;;;;;;19.09;37.64;101618.28;3551459;40;20023;-80
2021/07/20 01:11:49;;;;;;;7.80;5.05;;;;;;;19.05;37.78;101625.19;3551625;40;20038;-81
2021/07/20 01:14:20;;;;;;;9.43;5.25;;;;;;;19.05;38.19;101617.72;3541550;40;20103;-81
2021/07/20 01:16:50;;;;;;;8.68;5.20;;;;;;;18.98;38.19;101621.34;3531917;40;20085;-80
2021/07/20 01:19:19;;;;;;;8.60;5.32;;;;;;;18.98;38.46;101624.13;3532095;40;20023;-80
2021/07/20 01:21:53;;;;;;;8.30;5.13;;;;;;;18.97;38.24;101614.94;3531944;40;20537;-83
2021/07/20 01:24:22;;;;;;;7.88;4.93;;;;;;;18.96;38.11;101620.66;3512632;40;20740;-80
2021/07/20 01:26:53;;;;;;;10.00;5.35;;;;;;;18.91;37.78;101621.16;3502505;40;20022;-81
2021/07/20 01:29:23;;;;;;;9.00;5.47;;;;;;;18.90;38.26;101621.31;3484852;41;20099;-80
2021/07/20 01:31:53;;;;;;;9.18;5.45;;;;;;;18.88;38.18;101627.03;3491738;41;20062;-81
2021/07/20 01:34:23;;;;;;;7.45;4.78;;;;;;;18.86;38.36;101626.31;3483864;41;20094;-80
2021/07/20 01:36:52;;;;;;;9.00;5.25;;;;;;;18.84;38.17;101622.00;3474557;41;20556;-81
2021/07/20 01:39:24;;;;;;;8.30;4.97;;;;;;;18.83;38.51;101631.34;3474789;41;20089;-81
2021/07/20 01:41:54;;;;;;;8.80;5.25;;;;;;;18.76;38.45;101625.59;3483730;41;20059;-80
2021/07/20 01:44:26;;;;;;;8.90;5.18;;;;;;;18.78;38.58;101626.25;3478999;41;20038;-79
2021/07/20 01:46:56;;;;;;;7.93;5.20;;;;;;;18.74;38.50;101622.97;3484212;41;20038;-78
2021/07/20 01:49:28;;;;;;;8.45;5.15;;;;;;;18.75;38.18;101621.06;3493308;41;20033;-79
2021/07/20 01:52:00;;;;;;;8.40;5.03;;;;;;;18.70;38.59;101618.78;3507944;40;20025;-79
2021/07/20 01:54:33;;;;;;;7.80;5.00;;;;;;;18.69;38.67;101618.97;3493293;41;20030;-78
2021/07/20 01:57:01;;;;;;;8.40;5.05;;;;;;;18.63;38.50;101619.63;3492169;41;20053;-79
2021/07/20 01:59:58;;;;;;;8.45;4.97;;;;;;;18.61;38.64;101617.00;3483637;41;20046;-79
2021/07/20 02:03:09;;;;;;;10.07;5.95;;;;;;;18.62;38.81;101621.53;3500889;40;20037;-81
2021/07/20 02:08:34;;;;;;;8.38;4.97;;;;;;;18.57;38.79;101612.00;3502529;41;20722;-80
2021/07/20 02:11:10;;;;;;;7.88;4.72;;;;;;;18.58;38.86;101622.03;3502464;41;20029;-78
2021/07/20 02:14:14;;;;;;;8.77;5.18;;;;;;;18.52;39.03;101619.94;3503893;41;20045;-81
2021/07/20 02:17:02;;;;;;;7.88;4.75;;;;;;;18.53;39.06;101618.88;3487015;40;20049;-82
2021/07/20 02:19:38;;;;;;;8.05;5.18;;;;;;;18.52;38.99;101623.59;3523263;40;20088;-79
2021/07/20 02:22:19;;;;;;;9.07;5.27;;;;;;;18.49;38.56;101617.50;3504236;41;20712;-80
2021/07/20 02:24:50;;;;;;;8.93;5.50;;;;;;;18.49;39.16;101626.69;3513564;40;20556;-81
2021/07/20 02:27:23;;;;;;;8.43;5.28;;;;;;;18.48;38.92;101624.94;3513464;40;20029;-79
2021/07/20 02:30:07;;;;;;;9.18;5.10;;;;;;;18.45;38.91;101623.34;3478569;41;20035;-81
2021/07/20 02:32:36;;;;;;;8.73;5.15;;;;;;;18.42;38.72;101623.72;3484986;41;20828;-82
2021/07/20 02:35:19;;;;;;;9.73;5.43;;;;;;;18.43;39.42;101621.81;3484790;41;20031;-81
2021/07/20 02:37:49;;;;;;;9.00;5.57;;;;;;;18.38;39.17;101615.88;3484740;41;20045;-82
2021/07/20 02:40:22;;;;;;;10.27;5.93;;;;;;;18.38;39.10;101613.97;3475448;41;20026;-85
2021/07/20 02:42:54;;;;;;;10.68;5.47;;;;;;;18.36;39.01;101609.66;3484971;41;20033;-82
2021/07/20 02:45:23;;;;;;;;;;;;;;;18.06;39.26;101616.56;3485328;41;20041;-82
2021/07/20 02:47:52;;;;;;;7.85;4.68;;;;;;;18.26;38.96;101604.22;3476877;41;19957;-84
2021/07/20 02:50:24;;;;;;;;;;;;;;;18.00;39.50;101612.53;3498582;41;20061;-81
2021/07/20 02:53:07;;;;;;;8.55;4.32;;;;;;;18.23;38.74;101617.53;3434031;41;19934;-82
2021/07/20 02:55:49;;;;;;;9.00;5.22;;;;;;;18.24;38.98;101622.03;3513068;40;20041;-84
2021/07/20 02:58:20;;;;;;;9.35;5.47;;;;;;;18.21;38.71;101620.47;3503734;41;20030;-82
2021/07/20 03:00:49;;;;;;;9.38;5.82;;;;;;;18.17;39.08;101610.75;3497533;41;20033;-80
2021/07/20 03:03:18;;;;;;;11.52;6.10;;;;;;;18.15;39.07;101618.34;3465676;41;20031;-82
2021/07/20 03:05:52;;;;;;;10.90;5.70;;;;;;;18.14;39.39;101627.69;3463052;41;20051;-81
2021/07/20 03:08:27;;;;;;;9.55;5.45;;;;;;;18.13;39.49;101614.88;3465844;41;20076;-79
2021/07/20 03:11:05;;;;;;;9.68;5.70;;;;;;;18.10;39.23;101612.44;3470519;41;20110;-80
2021/07/20 03:13:40;;;;;;;9.10;5.43;;;;;;;18.10;39.59;101609.69;3459357;41;20052;-81
2021/07/20 03:16:11;;;;;;;8.65;5.18;;;;;;;18.07;39.63;101615.53;3448714;41;20036;-81
2021/07/20 03:18:43;;;;;;;9.30;5.38;;;;;;;18.04;39.25;101616.72;3462295;41;20039;-78
2021/07/20 03:21:13;;;;;;;10.20;5.20;;;;;;;18.03;39.27;101616.88;3456271;41;20034;-80
2021/07/20 03:23:44;;;;;;;8.85;5.63;;;;;;;18.02;39.45;101620.66;3449013;41;20043;-82
2021/07/20 03:26:14;;;;;;;10.70;5.57;;;;;;;17.99;39.53;101604.38;3460660;41;20042;-78
2021/07/20 03:28:45;;;;;;;10.73;6.00;;;;;;;18.00;39.39;101608.88;3484120;41;20053;-79
2021/07/20 03:31:18;;;;;;;9.57;5.47;;;;;;;17.96;39.37;101616.63;3494111;41;20037;-81
2021/07/20 03:33:51;;;;;;;9.02;5.38;;;;;;;17.95;39.68;101608.47;3494027;41;20033;-78
2021/07/20 03:36:29;;;;;;;9.77;5.68;;;;;;;17.92;39.22;101608.81;3484278;41;20038;-81
2021/07/20 03:38:59;;;;;;;10.00;5.30;;;;;;;17.92;39.32;101609.69;3479495;41;20042;-82
2021/07/20 03:41:29;;;;;;;9.57;6.10;;;;;;;17.92;39.39;101609.69;3475001;41;20079;-80
2021/07/20 03:44:00;;;;;;;9.85;5.75;;;;;;;17.91;39.64;101613.50;3471244;41;20023;-81
2021/07/20 03:46:30;;;;;;;8.82;5.13;;;;;;;17.88;39.59;101613.81;3454744;41;20068;-81
2021/07/20 03:48:59;;;;;;;9.70;5.82;;;;;;;17.86;39.73;101604.81;3458738;41;20035;-81
2021/07/20 03:51:36;;;;;;;8.70;5.20;;;;;;;17.86;39.76;101613.13;3487974;40;20033;-81
2021/07/20 03:54:08;;;;;;;9.43;5.72;;;;;;;17.85;39.61;101616.03;3503425;40;20061;-79
2021/07/20 03:56:39;;;;;;;10.07;5.78;;;;;;;17.80;40.00;101608.22;3503643;41;20089;-84
2021/07/20 03:59:12;;;;;;;11.10;6.40;;;;;;;17.79;39.69;101611.13;3513021;40;20029;-80
2021/07/20 04:02:03;;;;;;;10.20;5.68;;;;;;;17.78;39.38;101610.28;3513103;40;20747;-81
2021/07/20 04:04:35;;;;;;;;;;;;;;;17.50;40.54;101612.31;3507076;40;20033;-81
2021/07/20 04:07:08;;;;;;;8.57;5.10;;;;;;;17.73;39.78;101614.56;3515855;40;19986;-81
2021/07/20 04:09:49;;;;;;;9.82;5.53;;;;;;;17.74;39.85;101619.06;3522583;40;20648;-81
2021/07/20 04:12:27;;;;;;;12.10;6.18;;;;;;;17.72;39.94;101619.22;3519400;40;20045;-80
2021/07/20 04:15:16;;;;;;;11.57;5.68;;;;;;;17.71;39.99;101614.72;3494021;41;20090;-81
2021/07/20 04:18:04;;;;;;;9.65;5.20;;;;;;;17.67;40.03;101618.84;3465190;41;20046;-80
2021/07/20 04:20:33;;;;;;;10.38;6.32;;;;;;;17.65;39.67;101616.22;3493807;41;20058;-81
2021/07/20 04:40:28;;;;;;;8.82;5.80;;;;;;;17.61;40.57;101628.66;3636698;39;20431;-68
2021/07/20 04:42:56;;;;;;;10.40;5.93;;;;;;;17.58;40.29;101626.19;3600715;39;20056;-68
2021/07/20 04:45:28;;;;;;;11.40;6.13;;;;;;;17.61;40.20;101622.25;3605862;39;20052;-69
2021/07/20 04:48:00;;;;;;;10.25;5.82;;;;;;;17.58;40.16;101619.78;3584085;40;20054;-68
2021/07/20 04:50:56;;;;;;;10.25;5.72;;;;;;;17.58;40.61;101619.78;3585816;39;20045;-70
2021/07/20 04:53:26;;;;;;;10.07;6.20;;;;;;;17.59;40.28;101629.84;3586527;40;20064;-68
2021/07/20 04:55:55;;;;;;;10.57;5.80;;;;;;;17.60;40.41;101629.69;3586687;39;20040;-71
2021/07/20 04:58:25;;;;;;;9.07;5.50;;;;;;;17.59;40.28;101624.31;3583058;40;20042;-69
2021/07/20 05:00:55;;;;;;;11.00;5.72;;;;;;;17.60;40.86;101629.69;3584606;39;20296;-69
2021/07/20 05:03:26;;;;;;;10.85;5.63;;;;;;;17.60;40.27;101632.44;3588192;40;20060;-69
2021/07/20 05:05:57;;;;;;;10.02;5.88;;;;;;;17.60;40.41;101631.59;3581457;39;20036;-69
2021/07/20 05:08:33;;;;;;;10.10;6.22;;;;;;;17.60;40.57;101631.59;3601562;39;20090;-70
2021/07/20 05:11:05;;;;;;;10.85;5.82;;;;;;;17.62;40.93;101635.91;3582162;39;20134;-69
2021/07/20 05:13:35;;;;;;;8.95;5.35;;;;;;;17.62;40.82;101633.13;3585619;40;20064;-70
2021/07/20 05:16:06;;;;;;;10.98;6.35;;;;;;;17.66;40.76;101642.00;3592584;39;20083;-68
2021/07/20 05:18:49;;;;;;;10.77;6.35;;;;;;;17.66;41.59;101640.09;3584774;40;20069;-69
2021/07/20 05:21:38;;;;;;;9.48;5.53;;;;;;;17.73;41.32;101637.56;3583751;39;20048;-70
2021/07/20 05:24:08;;;;;;;11.13;6.25;;;;;;;17.75;41.57;101640.16;3599780;39;20497;-68
2021/07/20 05:26:51;;;;;;;14.20;6.50;;;;;;;17.84;41.25;101644.75;3575565;39;20041;-69
2021/07/20 05:29:21;;;;;;;11.68;6.40;;;;;;;17.90;41.33;101649.63;3587150;40;20149;-70
2021/07/20 05:31:58;;;;;;;9.93;5.70;;;;;;;17.95;41.33;101638.94;3601572;39;20049;-69
2021/07/20 05:34:28;;;;;;;10.95;6.55;;;;;;;18.00;41.70;101648.50;3595072;39;20092;-69
2021/07/20 05:36:56;;;;;;;11.88;6.95;;;;;;;18.08;41.63;101652.41;3594558;39;20133;-69
2021/07/20 05:39:24;;;;;;;11.82;6.97;;;;;;;18.13;41.14;101650.88;3593978;39;20040;-69
2021/07/20 05:42:05;;;;;;;12.82;7.07;;;;;;;18.19;41.39;101653.00;3590200;39;20110;-69
2021/07/20 05:44:39;;;;;;;10.85;6.55;;;;;;;18.22;40.91;101658.19;3592416;39;20314;-69
2021/07/20 05:47:09;;;;;;;10.95;6.25;;;;;;;18.29;41.05;101658.41;3593578;39;20125;-68
2021/07/20 05:49:57;;;;;;;9.55;6.03;;;;;;;18.32;41.64;101667.28;3593760;39;20344;-68
2021/07/20 05:52:28;;;;;;;11.25;6.07;;;;;;;18.42;41.63;101665.25;3589555;40;20041;-70
2021/07/20 05:55:01;;;;;;;12.48;6.47;;;;;;;18.47;41.53;101670.28;3588426;40;20449;-71
2021/07/20 05:57:32;;;;;;;11.25;6.70;;;;;;;18.56;41.29;101669.31;3588755;40;20350;-68
2021/07/20 06:00:20;;;;;;;12.93;6.65;;;;;;;18.63;41.50;101672.28;3588476;40;20077;-69
2021/07/20 06:03:04;;;;;;;11.40;6.78;;;;;;;18.68;41.22;101676.31;3559051;40;20040;-73
2021/07/20 06:05:32;;;;;;;10.98;6.78;;;;;;;18.77;40.63;101666.97;3592749;40;20352;-73
2021/07/20 06:08:01;;;;;;;11.65;6.50;;;;;;;18.81;40.94;101673.97;3575038;40;20073;-73
2021/07/20 06:10:29;;;;;;;12.00;6.68;;;;;;;18.88;40.97;101682.47;3579408;40;20049;-73
2021/07/20 06:13:00;;;;;;;11.63;6.55;;;;;;;18.93;40.58;101677.31;3571883;40;20077;-70
2021/07/20 06:15:28;;;;;;;11.18;6.75;;;;;;;18.97;40.85;101680.59;3578377;40;20070;-71
2021/07/20 06:17:58;;;;;;;11.32;6.68;;;;;;;19.04;40.15;101688.09;3565421;40;20056;-71
2021/07/20 06:20:26;;;;;;;11.80;6.95;;;;;;;19.08;41.00;101683.97;3570774;40;20038;-70
2021/07/20 06:22:57;;;;;;;10.27;6.57;;;;;;;19.15;40.63;101685.00;3579003;40;20048;-71
2021/07/20 06:25:30;;;;;;;11.00;6.50;;;;;;;19.20;40.52;101681.72;3578935;40;20065;-71
2021/07/20 06:28:01;;;;;;;11.15;6.82;;;;;;;19.29;40.82;101683.47;3581011;40;20092;-72
2021/07/20 06:30:29;;;;;;;13.02;6.78;;;;;;;19.34;40.15;101691.31;3574981;40;20032;-71
2021/07/20 06:32:58;;;;;;;12.32;7.20;;;;;;;19.41;40.54;101690.47;3589561;40;20047;-71
2021/07/20 06:35:26;;;;;;;10.73;6.80;;;;;;;19.47;40.02;101694.44;3590295;40;20032;-71
2021/07/20 06:37:54;;;;;;;12.20;6.88;;;;;;;19.53;40.16;101693.78;3590157;40;20048;-70
2021/07/20 06:40:22;;;;;;;10.75;6.45;;;;;;;19.60;40.10;101700.38;3590501;40;20040;-71
2021/07/20 06:42:51;;;;;;;10.57;6.50;;;;;;;19.68;40.09;101702.34;3589913;40;20041;-71
2021/07/20 06:45:20;;;;;;;12.02;7.38;;;;;;;19.75;39.89;101695.91;3590029;40;20035;-70
2021/07/20 06:47:50;;;;;;;12.00;6.78;;;;;;;19.80;39.82;101699.03;3589342;40;20102;-70
2021/07/20 06:50:19;;;;;;;12.32;7.10;;;;;;;19.88;39.70;101703.72;3589838;40;20114;-72
2021/07/20 06:52:49;;;;;;;11.82;6.65;;;;;;;19.93;39.42;101695.72;3585569;40;20077;-72
2021/07/20 06:55:20;;;;;;;11.30;7.00;;;;;;;19.98;40.03;101695.22;3588865;40;20080;-71
2021/07/20 06:57:48;;;;;;;13.52;7.35;;;;;;;20.03;39.89;101696.44;3587970;39;20044;-72
2021/07/20 07:00:18;;;;;;;11.73;6.90;;;;;;;20.10;40.03;101703.00;3595633;40;20063;-72
2021/07/20 07:02:54;;;;;;;11.55;6.32;;;;;;;20.20;39.35;101702.84;3587215;39;20040;-71
2021/07/20 07:05:25;;;;;;;9.82;6.20;;;;;;;20.26;39.37;101696.59;3588799;40;20059;-71
2021/07/20 07:07:54;;;;;;;12.43;6.45;;;;;;;20.33;39.89;101703.22;3576293;40;20051;-66
2021/07/20 07:10:23;;;;;;;10.52;6.38;;;;;;;20.42;39.61;101702.13;3589562;40;20028;-64
2021/07/20 07:12:52;;;;;;;11.23;6.65;;;;;;;20.50;39.31;101702.13;3589216;39;20051;-67
2021/07/20 07:15:21;;;;;;;11.10;6.88;;;;;;;20.58;39.33;101701.25;3590425;40;20284;-65
2021/07/20 07:17:51;;;;;;;11.18;6.97;;;;;;;20.68;38.82;101690.78;3589275;39;20040;-67
2021/07/20 07:20:25;;;;;;;11.50;6.35;;;;;;;20.77;39.35;101692.47;3589842;40;20063;-68
2021/07/20 07:22:54;;;;;;;10.88;6.25;;;;;;;20.83;39.42;101696.47;3605816;39;20102;-66
2021/07/20 07:25:23;;;;;;;10.48;6.47;;;;;;;20.90;39.31;101703.09;3589676;40;20029;-68
2021/07/20 07:27:53;;;;;;;10.25;6.25;;;;;;;20.98;39.05;101701.13;3589653;39;20300;-67
2021/07/20 07:30:22;;;;;;;11.88;6.15;;;;;;;21.03;38.45;101701.47;3589690;40;20029;-67
2021/07/20 07:32:52;;;;;;;10.35;6.22;;;;;;;21.11;38.76;101702.47;3589020;39;20044;-71
2021/07/20 07:35:20;;;;;;;9.68;5.68;;;;;;;21.16;38.81;101697.25;3590313;40;20044;-72
2021/07/20 07:37:51;;;;;;;10.52;5.82;;;;;;;21.23;38.52;101693.53;3592131;39;20032;-71
2021/07/20 07:40:20;;;;;;;10.55;6.05;;;;;;;21.32;38.36;101694.38;3600826;40;20056;-72
2021/07/20 07:42:48;;;;;;;9.60;6.03;;;;;;;21.39;38.54;101703.72;3596854;40;20086;-72
2021/07/20 07:45:18;;;;;;;10.30;6.75;;;;;;;21.46;38.51;101704.72;3588174;40;20138;-72
2021/07/20 07:47:47;;;;;;;8.90;6.40;;;;;;;21.53;38.35;101702.91;3587904;40;20497;-72
2021/07/20 07:50:16;;;;;;;10.93;6.13;;;;;;;21.63;38.41;101705.50;3588255;40;20053;-72
2021/07/20 07:52:45;;;;;;;10.77;6.10;;;;;;;21.66;37.85;101707.88;3588101;39;20037;-71
2021/07/20 07:55:14;;;;;;;10.95;6.47;;;;;;;21.72;37.88;101708.03;3587879;40;20068;-72
2021/07/20 07:57:44;;;;;;;10.77;6.43;;;;;;;21.79;37.85;101703.47;3587411;39;20049;-72
2021/07/20 08:00:13;;;;;;;9.85;5.80;;;;;;;21.84;37.62;101708.47;3588586;40;20140;-72
2021/07/20 08:02:47;;;;;;;11.10;6.32;;;;;;;21.90;37.46;101704.94;3587638;40;20153;-72
2021/07/20 08:05:17;;;;;;;8.98;5.70;;;;;;;21.95;37.58;101702.47;3588810;40;20056;-72
2021/07/20 08:07:46;;;;;;;9.75;5.82;;;;;;;22.01;37.73;101701.69;3587470;39;20540;-72
2021/07/20 08:10:14;;;;;;;10.30;6.47;;;;;;;22.04;37.45;101712.47;3588763;40;20618;-71
2021/07/20 08:12:45;;;;;;;8.80;5.68;;;;;;;22.10;36.70;101708.06;3589814;39;20063;-72
2021/07/20 08:15:14;;;;;;;10.95;6.00;;;;;;;22.11;36.47;101701.44;3589959;39;20393;-72
2021/07/20 08:17:44;;;;;;;9.88;6.03;;;;;;;22.13;36.48;101703.00;3587553;39;20136;-73
2021/07/20 08:20:14;;;;;;;10.18;6.40;;;;;;;22.14;36.53;101701.09;3588184;40;20102;-72
2021/07/20 08:22:44;;;;;;;11.30;6.60;;;;;;;22.14;36.30;101707.53;3587032;40;20130;-72
2021/07/20 08:25:15;;;;;;;10.10;5.95;;;;;;;22.14;36.59;101706.66;3588610;40;20056;-72
2021/07/20 08:27:46;;;;;;;9.52;6.38;;;;;;;22.13;36.12;101703.00;3587971;39;20420;-72
2021/07/20 08:30:18;;;;;;;10.27;6.03;;;;;;;22.10;36.40;101697.78;3588289;40;20064;-72
2021/07/20 08:32:51;;;;;;;9.68;6.63;;;;;;;22.11;36.00;101693.94;3587621;40;20041;-72
2021/07/20 08:35:24;;;;;;;9.70;6.10;;;;;;;22.08;35.89;101701.81;3588988;40;20060;-73
2021/07/20 08:38:02;;;;;;;10.50;6.70;;;;;;;22.04;35.70;101706.91;3588048;40;20047;-72
2021/07/20 08:40:40;;;;;;;10.33;5.80;;;;;;;22.00;34.89;101705.53;3588774;40;20052;-72
2021/07/20 08:43:26;;;;;;;8.93;5.38;;;;;;;21.95;35.09;101704.38;3576147;40;20295;-72
2021/07/20 08:46:10;;;;;;;9.35;5.50;;;;;;;21.88;35.86;101698.69;3586628;39;20397;-72
2021/07/20 08:48:47;;;;;;;12.55;5.82;;;;;;;21.86;35.59;101702.72;3588460;40;20411;-72
2021/07/20 08:51:19;;;;;;;9.18;5.43;;;;;;;21.81;35.67;101703.28;3587123;39;20041;-72
2021/07/20 08:53:54;;;;;;;8.57;5.93;;;;;;;21.78;35.72;101700.84;3588302;40;20105;-72
2021/07/20 08:56:26;;;;;;;9.90;5.38;;;;;;;21.77;36.24;101707.47;3594323;39;20469;-72
2021/07/20 08:58:59;;;;;;;9.23;5.60;;;;;;;21.74;36.34;101711.47;3588511;40;20060;-72
2021/07/20 09:01:33;;;;;;;9.13;5.57;;;;;;;21.75;36.57;101704.88;3574894;39;20039;-72
2021/07/20 09:04:08;;;;;;;9.75;6.13;;;;;;;21.75;36.02;101698.44;3594732;39;20067;-72
2021/07/20 09:06:41;;;;;;;8.35;5.45;;;;;;;21.75;35.62;101706.78;3588160;40;20053;-72
2021/07/20 09:09:14;;;;;;;8.10;5.72;;;;;;;21.73;35.61;101704.22;3588430;40;20277;-72
2021/07/20 09:11:45;;;;;;;8.23;5.63;;;;;;;21.71;36.22;101713.78;3587513;40;20048;-72
2021/07/20 09:14:22;;;;;;;7.63;5.10;;;;;;;21.72;36.05;101713.63;3587904;40;20048;-72
2021/07/20 09:16:52;;;;;;;9.43;5.85;;;;;;;21.76;36.55;101714.09;3587229;39;20497;-72
2021/07/20 09:19:28;;;;;;;8.65;5.25;;;;;;;21.80;36.01;101712.69;3588342;40;20714;-72
2021/07/20 09:22:01;;;;;;;10.10;5.93;;;;;;;21.80;35.42;101715.47;3592430;40;20172;-72
2021/07/20 09:24:34;;;;;;;8.98;6.20;;;;;;;21.83;35.37;101715.94;3589941;40;20053;-72
2021/07/20 09:27:11;;;;;;;9.57;6.00;;;;;;;21.86;35.47;101723.06;3573321;40;20048;-72
2021/07/20 09:29:55;;;;;;;8.63;5.78;;;;;;;21.86;35.57;101711.06;3587989;40;20052;-72
2021/07/20 09:32:40;;;;;;;9.40;5.82;;;;;;;21.92;35.22;101719.53;3578608;40;20157;-72
2021/07/20 09:35:14;;;;;;;7.95;5.07;;;;;;;21.94;34.95;101711.88;3586488;40;20052;-72
2021/07/20 09:37:53;;;;;;;9.02;6.13;;;;;;;22.00;34.57;101715.81;3586942;40;20044;-72
2021/07/20 09:40:35;;;;;;;9.15;6.15;;;;;;;22.05;35.31;101713.34;3588488;40;20103;-72
2021/07/20 09:43:07;;;;;;;10.33;5.77;;;;;;;22.10;35.33;101708.06;3588647;40;20102;-72
2021/07/20 09:45:41;;;;;;;11.10;5.80;;;;;;;22.19;34.88;101712.50;3574259;40;20052;-72
2021/07/20 09:48:22;;;;;;;10.68;5.97;;;;;;;22.26;34.54;101713.53;3592748;40;20052;-72
2021/07/20 09:51:02;;;;;;;8.20;5.82;;;;;;;22.31;34.84;101708.28;3588297;40;20051;-72
2021/07/20 09:53:48;;;;;;;7.88;4.97;;;;;;;22.35;34.88;101712.41;3587592;40;20056;-72
2021/07/20 09:56:35;;;;;;;7.93;5.40;;;;;;;22.41;34.69;101707.97;3586989;40;20378;-72
2021/07/20 09:59:13;;;;;;;8.55;5.32;;;;;;;22.48;34.70;101706.16;3588491;40;20056;-72
2021/07/20 10:01:49;;;;;;;8.50;5.40;;;;;;;22.54;34.14;101713.78;3587071;40;20091;-72
2021/07/20 10:04:23;;;;;;;9.30;5.72;;;;;;;22.60;33.42;101712.13;3586750;40;20080;-71
2021/07/20 10:06:58;;;;;;;8.07;5.50;;;;;;;22.65;34.53;101704.91;3576717;40;20052;-71
2021/07/20 10:09:31;;;;;;;7.47;5.22;;;;;;;22.70;34.64;101708.00;3591098;40;20413;-71
2021/07/20 10:12:03;;;;;;;9.00;5.53;;;;;;;22.76;33.92;101709.16;3589166;40;20036;-72
2021/07/20 10:14:46;;;;;;;7.05;4.65;;;;;;;22.78;33.65;101707.06;3590683;40;20389;-72
2021/07/20 10:17:24;;;;;;;8.25;4.97;;;;;;;22.84;33.71;101698.81;3591044;40;20048;-71
2021/07/20 10:19:57;;;;;;;8.07;4.57;;;;;;;22.88;34.03;101702.09;3591271;40;20432;-72
2021/07/20 10:22:29;;;;;;;7.50;4.75;;;;;;;22.94;34.00;101702.16;3582961;40;20044;-71
2021/07/20 10:25:00;;;;;;;9.10;5.22;;;;;;;22.98;33.81;101712.94;3593094;40;20545;-72
2021/07/20 10:27:37;;;;;;;7.65;5.03;;;;;;;23.05;33.46;101699.97;3588468;40;20059;-66
2021/07/20 10:30:09;;;;;;;8.45;5.60;;;;;;;23.09;32.91;101695.69;3588111;40;20068;-64
2021/07/20 10:32:48;;;;;;;8.80;5.40;;;;;;;23.09;32.42;101696.56;3586588;40;20038;-66
2021/07/20 10:35:22;;;;;;;8.60;5.28;;;;;;;23.11;32.71;101694.44;3587433;40;20052;-65
2021/07/20 10:37:52;;;;;;;8.68;5.10;;;;;;;23.08;32.99;101703.19;3586090;40;20060;-65
2021/07/20 10:40:23;;;;;;;7.78;5.00;;;;;;;23.08;32.87;101697.63;3585148;40;20060;-65
2021/07/20 10:42:58;;;;;;;7.15;5.00;;;;;;;23.08;32.86;101700.41;3586664;40;20048;-66
2021/07/20 10:45:32;;;;;;;8.38;5.10;;;;;;;23.06;33.23;101693.28;3582827;40;20045;-63
2021/07/20 10:48:04;;;;;;;7.95;4.95;;;;;;;23.08;33.08;101696.75;3583779;40;20044;-64
2021/07/20 10:50:39;;;;;;;7.25;4.63;;;;;;;23.08;33.18;101700.41;3587919;40;20145;-62
2021/07/20 10:53:14;;;;;;;6.70;4.93;;;;;;;23.13;32.89;101703.50;3587791;40;20133;-66
2021/07/20 10:55:54;;;;;;;8.05;5.38;;;;;;;23.16;31.92;101694.72;3586310;39;20060;-63
2021/07/20 10:58:30;;;;;;;8.00;5.47;;;;;;;23.17;31.33;101696.47;3587587;40;20060;-67
2021/07/20 11:01:04;;;;;;;12.60;6.68;;;;;;;23.20;31.89;101698.00;3586164;40;20392;-67
2021/07/20 11:03:48;;;;;;;9.07;5.47;;;;;;;23.20;31.64;101686.84;3586435;40;20416;-68
2021/07/20 11:06:18;;;;;;;8.55;5.50;;;;;;;23.19;31.55;101690.69;3582272;40;20036;-68
2021/07/20 11:08:50;;;;;;;8.65;5.13;;;;;;;23.20;31.81;101695.22;3582906;40;20088;-67
2021/07/20 11:11:22;;;;;;;7.43;4.78;;;;;;;23.18;32.20;101691.75;3584510;40;20084;-67
2021/07/20 11:13:53;;;;;;;;;;;;;;;22.87;32.31;101686.41;3593362;40;20385;-67
2021/07/20 11:16:22;;;;;;;8.93;4.65;;;;;;;23.15;32.38;101681.81;3582971;40;19932;-68
2021/07/20 11:18:52;;;;;;;7.63;5.35;;;;;;;23.18;31.19;101692.59;3586597;40;20134;-67
2021/07/20 11:21:24;;;;;;;10.10;5.40;;;;;;;23.20;31.45;101692.41;3585178;39;20040;-68
2021/07/20 11:23:53;;;;;;;9.25;4.88;;;;;;;23.18;31.91;101683.38;3586544;40;20060;-67
2021/07/20 11:26:23;;;;;;;6.18;4.53;;;;;;;23.22;32.15;101688.34;3584842;40;20427;-62
2021/07/20 11:28:53;;;;;;;8.60;5.55;;;;;;;23.26;31.18;101689.69;3594971;40;20116;-66
2021/07/20 11:31:27;;;;;;;7.38;4.97;;;;;;;23.32;31.64;101690.84;3593581;39;20047;-67
2021/07/20 11:33:58;;;;;;;6.70;5.03;;;;;;;23.35;31.46;101684.00;3578988;40;20041;-66
2021/07/20 11:36:31;;;;;;;9.55;5.82;;;;;;;23.37;31.15;101685.53;3584124;40;20062;-66
2021/07/20 11:39:01;;;;;;;8.40;5.32;;;;;;;23.39;31.12;101686.19;3582226;40;20036;-67
2021/07/20 11:41:43;;;;;;;7.78;5.20;;;;;;;23.41;30.37;101677.63;3585492;40;20053;-67
2021/07/20 11:44:20;;;;;;;7.45;5.03;;;;;;;23.39;30.38;101675.03;3585265;40;20059;-67
2021/07/20 11:46:56;;;;;;;7.13;4.75;;;;;;;23.42;30.36;101683.00;3584601;40;20040;-67
2021/07/20 11:49:31;;;;;;;7.45;5.28;;;;;;;23.44;30.97;101685.63;3584558;40;20137;-67
2021/07/20 11:52:04;;;;;;;7.38;4.97;;;;;;;23.47;30.74;101682.44;3582392;39;20150;-68
2021/07/20 11:54:45;;;;;;;9.52;5.28;;;;;;;23.52;30.62;101680.81;3586450;40;20052;-66
2021/07/20 11:58:07;;;;;;;7.90;5.32;;;;;;;23.54;31.29;101681.47;3581973;40;20040;-67
2021/07/20 12:01:26;;;;;;;7.47;4.40;;;;;;;23.56;31.03;101673.75;3584125;40;20041;-68
2021/07/20 12:04:12;;;;;;;7.18;4.50;;;;;;;23.71;30.95;101684.88;3584395;40;20048;-68
2021/07/20 12:06:57;;;;;;;6.63;4.57;;;;;;;23.79;31.04;101681.09;3586362;40;20036;-68
2021/07/20 12:09:34;;;;;;;8.45;5.60;;;;;;;23.85;29.62;101685.88;3585015;40;20051;-66
2021/07/20 12:12:39;;;;;;;6.35;4.70;;;;;;;23.89;30.75;101676.88;3584936;40;20037;-67
2021/07/20 12:15:09;;;;;;;7.13;4.90;;;;;;;23.93;30.86;101672.63;3584778;40;20063;-67
2021/07/20 12:17:40;;;;;;;7.75;4.90;;;;;;;23.99;30.63;101679.31;3581773;40;20048;-67